sensor_id;sensor_type;location;lat;lon;timestamp;P1;durP1;ratioP1;P2;durP2;ratioP2
10537;SDS011;5317;49.048;8.468;2023-08-30T00:01:59;3.50;;;3.13;;
10537;SDS011;5317;49.048;8.468;2023-08-30T00:04:25;3.23;;;2.93;;
10537;SDS011;5317;49.048;8.468;2023-08-30T00:06:52;3.50;;;3.20;;
10537;SDS011;5317;49.048;8.468;2023-08-30T00:09:19;3.13;;;2.83;;
10537;SDS011;5317;49.048;8.468;2023-08-30T00:11:46;3.27;;;3.00;;
10537;SDS011;5317;49.048;8.468;2023-08-30T00:14:14;3.43;;;3.00;;
10537;SDS011;5317;49.048;8.468;2023-08-30T00:16:41;3.50;;;2.90;;
10537;SDS011;5317;49.048;8.468;2023-08-30T00:19:08;3.63;;;3.07;;
10537;SDS011;5317;49.048;8.468;2023-08-30T00:21:35;3.17;;;2.87;;
10537;SDS011;5317;49.048;8.468;2023-08-30T00:24:02;4.13;;;2.90;;
10537;SDS011;5317;49.048;8.468;2023-08-30T00:26:29;3.33;;;3.03;;
10537;SDS011;5317;49.048;8.468;2023-08-30T00:28:56;2.63;;;2.43;;
10537;SDS011;5317;49.048;8.468;2023-08-30T00:31:24;3.40;;;3.10;;
10537;SDS011;5317;49.048;8.468;2023-08-30T00:33:51;3.60;;;3.30;;
10537;SDS011;5317;49.048;8.468;2023-08-30T00:36:17;3.13;;;2.83;;
10537;SDS011;5317;49.048;8.468;2023-08-30T00:38:44;3.20;;;2.90;;
10537;SDS011;5317;49.048;8.468;2023-08-30T00:41:12;3.30;;;3.00;;
10537;SDS011;5317;49.048;8.468;2023-08-30T00:43:39;3.47;;;3.07;;
10537;SDS011;5317;49.048;8.468;2023-08-30T00:46:06;4.37;;;3.03;;
10537;SDS011;5317;49.048;8.468;2023-08-30T00:48:34;3.50;;;3.10;;
10537;SDS011;5317;49.048;8.468;2023-08-30T00:51:01;3.10;;;2.90;;
10537;SDS011;5317;49.048;8.468;2023-08-30T00:53:28;3.00;;;2.70;;
10537;SDS011;5317;49.048;8.468;2023-08-30T00:55:55;3.90;;;2.70;;
10537;SDS011;5317;49.048;8.468;2023-08-30T00:58:21;3.70;;;3.13;;
10537;SDS011;5317;49.048;8.468;2023-08-30T01:00:51;2.73;;;2.53;;
10537;SDS011;5317;49.048;8.468;2023-08-30T01:03:20;3.70;;;3.40;;
10537;SDS011;5317;49.048;8.468;2023-08-30T01:05:49;3.77;;;3.23;;
10537;SDS011;5317;49.048;8.468;2023-08-30T01:08:16;4.10;;;3.17;;
10537;SDS011;5317;49.048;8.468;2023-08-30T01:10:45;3.37;;;3.07;;
10537;SDS011;5317;49.048;8.468;2023-08-30T01:13:19;3.10;;;2.90;;
10537;SDS011;5317;49.048;8.468;2023-08-30T01:15:47;3.33;;;3.00;;
10537;SDS011;5317;49.048;8.468;2023-08-30T01:18:16;3.17;;;2.93;;
10537;SDS011;5317;49.048;8.468;2023-08-30T01:20:44;3.77;;;3.30;;
10537;SDS011;5317;49.048;8.468;2023-08-30T01:23:15;3.83;;;2.70;;
10537;SDS011;5317;49.048;8.468;2023-08-30T01:25:53;2.93;;;2.63;;
10537;SDS011;5317;49.048;8.468;2023-08-30T01:28:30;4.23;;;3.13;;
10537;SDS011;5317;49.048;8.468;2023-08-30T01:30:59;3.83;;;2.80;;
10537;SDS011;5317;49.048;8.468;2023-08-30T01:33:26;4.43;;;2.90;;
10537;SDS011;5317;49.048;8.468;2023-08-30T01:35:54;4.00;;;3.63;;
10537;SDS011;5317;49.048;8.468;2023-08-30T01:38:23;3.80;;;2.87;;
10537;SDS011;5317;49.048;8.468;2023-08-30T01:40:52;5.07;;;3.60;;
10537;SDS011;5317;49.048;8.468;2023-08-30T01:43:20;3.40;;;3.10;;
10537;SDS011;5317;49.048;8.468;2023-08-30T01:45:50;3.80;;;3.10;;
10537;SDS011;5317;49.048;8.468;2023-08-30T01:48:17;2.97;;;2.67;;
10537;SDS011;5317;49.048;8.468;2023-08-30T01:50:45;6.27;;;3.40;;
10537;SDS011;5317;49.048;8.468;2023-08-30T01:53:13;3.20;;;2.90;;
10537;SDS011;5317;49.048;8.468;2023-08-30T01:55:40;3.73;;;3.30;;
10537;SDS011;5317;49.048;8.468;2023-08-30T01:58:08;3.40;;;2.80;;
10537;SDS011;5317;49.048;8.468;2023-08-30T02:00:35;3.23;;;2.93;;
10537;SDS011;5317;49.048;8.468;2023-08-30T02:03:08;3.67;;;3.30;;
10537;SDS011;5317;49.048;8.468;2023-08-30T02:05:36;3.93;;;3.10;;
10537;SDS011;5317;49.048;8.468;2023-08-30T02:08:09;5.00;;;3.30;;
10537;SDS011;5317;49.048;8.468;2023-08-30T02:10:43;3.47;;;3.17;;
10537;SDS011;5317;49.048;8.468;2023-08-30T02:13:14;3.93;;;3.50;;
10537;SDS011;5317;49.048;8.468;2023-08-30T02:15:43;4.90;;;3.50;;
10537;SDS011;5317;49.048;8.468;2023-08-30T02:18:13;4.20;;;3.20;;
10537;SDS011;5317;49.048;8.468;2023-08-30T02:20:40;4.10;;;3.47;;
10537;SDS011;5317;49.048;8.468;2023-08-30T02:23:08;3.23;;;2.93;;
10537;SDS011;5317;49.048;8.468;2023-08-30T02:25:36;3.63;;;3.33;;
10537;SDS011;5317;49.048;8.468;2023-08-30T02:28:03;3.83;;;3.23;;
10537;SDS011;5317;49.048;8.468;2023-08-30T02:30:30;4.23;;;3.50;;
10537;SDS011;5317;49.048;8.468;2023-08-30T02:32:57;4.10;;;3.67;;
10537;SDS011;5317;49.048;8.468;2023-08-30T02:35:25;5.37;;;3.83;;
10537;SDS011;5317;49.048;8.468;2023-08-30T02:37:52;4.23;;;3.67;;
10537;SDS011;5317;49.048;8.468;2023-08-30T02:40:19;3.97;;;3.67;;
10537;SDS011;5317;49.048;8.468;2023-08-30T02:42:45;4.63;;;3.63;;
10537;SDS011;5317;49.048;8.468;2023-08-30T02:45:12;3.87;;;3.57;;
10537;SDS011;5317;49.048;8.468;2023-08-30T02:47:39;4.30;;;3.43;;
10537;SDS011;5317;49.048;8.468;2023-08-30T02:50:06;4.17;;;3.53;;
10537;SDS011;5317;49.048;8.468;2023-08-30T02:52:34;3.73;;;3.43;;
10537;SDS011;5317;49.048;8.468;2023-08-30T02:55:01;3.37;;;3.07;;
10537;SDS011;5317;49.048;8.468;2023-08-30T02:57:28;4.00;;;3.60;;
10537;SDS011;5317;49.048;8.468;2023-08-30T02:59:55;3.60;;;3.30;;
10537;SDS011;5317;49.048;8.468;2023-08-30T03:02:22;3.83;;;3.53;;
10537;SDS011;5317;49.048;8.468;2023-08-30T03:04:49;3.80;;;3.50;;
10537;SDS011;5317;49.048;8.468;2023-08-30T03:07:15;3.20;;;3.00;;
10537;SDS011;5317;49.048;8.468;2023-08-30T03:09:43;4.20;;;3.80;;
10537;SDS011;5317;49.048;8.468;2023-08-30T03:12:10;3.90;;;3.50;;
10537;SDS011;5317;49.048;8.468;2023-08-30T03:14:37;3.70;;;3.40;;
10537;SDS011;5317;49.048;8.468;2023-08-30T03:17:04;3.80;;;3.43;;
10537;SDS011;5317;49.048;8.468;2023-08-30T03:19:31;3.50;;;3.20;;
10537;SDS011;5317;49.048;8.468;2023-08-30T03:21:57;3.10;;;2.90;;
10537;SDS011;5317;49.048;8.468;2023-08-30T03:24:25;4.03;;;3.67;;
10537;SDS011;5317;49.048;8.468;2023-08-30T03:26:53;3.27;;;2.97;;
10537;SDS011;5317;49.048;8.468;2023-08-30T03:29:20;3.50;;;3.20;;
10537;SDS011;5317;49.048;8.468;2023-08-30T03:31:47;3.70;;;3.40;;
10537;SDS011;5317;49.048;8.468;2023-08-30T03:34:14;4.70;;;3.63;;
10537;SDS011;5317;49.048;8.468;2023-08-30T03:36:41;3.87;;;3.50;;
10537;SDS011;5317;49.048;8.468;2023-08-30T03:39:09;3.90;;;3.60;;
10537;SDS011;5317;49.048;8.468;2023-08-30T03:41:37;4.50;;;4.10;;
10537;SDS011;5317;49.048;8.468;2023-08-30T03:44:05;4.40;;;3.13;;
10537;SDS011;5317;49.048;8.468;2023-08-30T03:46:32;3.60;;;3.30;;
10537;SDS011;5317;49.048;8.468;2023-08-30T03:48:59;3.60;;;3.23;;
10537;SDS011;5317;49.048;8.468;2023-08-30T03:51:26;3.90;;;3.60;;
10537;SDS011;5317;49.048;8.468;2023-08-30T03:53:52;4.87;;;3.50;;
10537;SDS011;5317;49.048;8.468;2023-08-30T03:56:21;4.30;;;3.60;;
10537;SDS011;5317;49.048;8.468;2023-08-30T03:58:48;4.10;;;3.70;;
10537;SDS011;5317;49.048;8.468;2023-08-30T04:01:16;4.20;;;3.27;;
10537;SDS011;5317;49.048;8.468;2023-08-30T04:03:43;4.33;;;3.50;;
10537;SDS011;5317;49.048;8.468;2023-08-30T04:06:09;3.80;;;3.50;;
10537;SDS011;5317;49.048;8.468;2023-08-30T04:08:36;4.37;;;3.10;;
10537;SDS011;5317;49.048;8.468;2023-08-30T04:11:03;4.00;;;3.60;;
10537;SDS011;5317;49.048;8.468;2023-08-30T04:13:30;4.57;;;3.30;;
10537;SDS011;5317;49.048;8.468;2023-08-30T04:15:57;3.87;;;3.57;;
10537;SDS011;5317;49.048;8.468;2023-08-30T04:18:26;4.70;;;3.80;;
10537;SDS011;5317;49.048;8.468;2023-08-30T04:20:53;4.07;;;3.67;;
10537;SDS011;5317;49.048;8.468;2023-08-30T04:23:20;4.53;;;3.70;;
10537;SDS011;5317;49.048;8.468;2023-08-30T04:25:46;3.93;;;3.63;;
10537;SDS011;5317;49.048;8.468;2023-08-30T04:28:13;5.13;;;3.80;;
10537;SDS011;5317;49.048;8.468;2023-08-30T04:30:40;3.60;;;3.30;;
10537;SDS011;5317;49.048;8.468;2023-08-30T04:33:07;4.30;;;3.90;;
10537;SDS011;5317;49.048;8.468;2023-08-30T04:35:35;4.40;;;3.90;;
10537;SDS011;5317;49.048;8.468;2023-08-30T04:38:02;5.53;;;4.00;;
10537;SDS011;5317;49.048;8.468;2023-08-30T04:40:29;4.17;;;3.60;;
10537;SDS011;5317;49.048;8.468;2023-08-30T04:42:57;4.97;;;3.90;;
10537;SDS011;5317;49.048;8.468;2023-08-30T04:45:24;3.60;;;3.30;;
10537;SDS011;5317;49.048;8.468;2023-08-30T04:47:51;4.00;;;3.60;;
10537;SDS011;5317;49.048;8.468;2023-08-30T04:50:18;4.00;;;3.60;;
10537;SDS011;5317;49.048;8.468;2023-08-30T04:52:46;4.37;;;3.97;;
10537;SDS011;5317;49.048;8.468;2023-08-30T04:55:13;4.47;;;4.07;;
10537;SDS011;5317;49.048;8.468;2023-08-30T04:57:40;4.53;;;4.13;;
10537;SDS011;5317;49.048;8.468;2023-08-30T05:00:10;4.23;;;3.90;;
10537;SDS011;5317;49.048;8.468;2023-08-30T05:02:37;5.13;;;4.07;;
10537;SDS011;5317;49.048;8.468;2023-08-30T05:05:04;6.33;;;4.23;;
10537;SDS011;5317;49.048;8.468;2023-08-30T05:07:32;6.17;;;4.10;;
10537;SDS011;5317;49.048;8.468;2023-08-30T05:10:00;4.30;;;4.00;;
10537;SDS011;5317;49.048;8.468;2023-08-30T05:12:28;5.70;;;4.03;;
10537;SDS011;5317;49.048;8.468;2023-08-30T05:14:54;4.83;;;4.10;;
10537;SDS011;5317;49.048;8.468;2023-08-30T05:17:21;4.50;;;3.73;;
10537;SDS011;5317;49.048;8.468;2023-08-30T05:19:48;4.73;;;3.43;;
10537;SDS011;5317;49.048;8.468;2023-08-30T05:22:15;4.33;;;3.80;;
10537;SDS011;5317;49.048;8.468;2023-08-30T05:24:42;4.20;;;3.90;;
10537;SDS011;5317;49.048;8.468;2023-08-30T05:27:10;4.40;;;4.00;;
10537;SDS011;5317;49.048;8.468;2023-08-30T05:29:38;3.97;;;3.67;;
10537;SDS011;5317;49.048;8.468;2023-08-30T05:32:05;4.10;;;3.80;;
10537;SDS011;5317;49.048;8.468;2023-08-30T05:34:32;4.20;;;3.83;;
10537;SDS011;5317;49.048;8.468;2023-08-30T05:36:59;4.30;;;3.50;;
10537;SDS011;5317;49.048;8.468;2023-08-30T05:39:26;4.47;;;4.03;;
10537;SDS011;5317;49.048;8.468;2023-08-30T05:41:53;4.47;;;4.00;;
10537;SDS011;5317;49.048;8.468;2023-08-30T05:44:21;4.27;;;3.90;;
10537;SDS011;5317;49.048;8.468;2023-08-30T05:46:48;4.60;;;4.03;;
10537;SDS011;5317;49.048;8.468;2023-08-30T05:49:15;4.37;;;4.00;;
10537;SDS011;5317;49.048;8.468;2023-08-30T05:51:42;4.37;;;3.90;;
10537;SDS011;5317;49.048;8.468;2023-08-30T05:54:08;4.80;;;4.00;;
10537;SDS011;5317;49.048;8.468;2023-08-30T05:56:35;3.80;;;3.50;;
10537;SDS011;5317;49.048;8.468;2023-08-30T05:59:02;3.67;;;3.40;;
10537;SDS011;5317;49.048;8.468;2023-08-30T06:01:30;4.20;;;3.80;;
10537;SDS011;5317;49.048;8.468;2023-08-30T06:03:57;4.07;;;3.67;;
10537;SDS011;5317;49.048;8.468;2023-08-30T06:06:24;4.73;;;4.10;;
10537;SDS011;5317;49.048;8.468;2023-08-30T06:08:52;5.87;;;4.20;;
10537;SDS011;5317;49.048;8.468;2023-08-30T06:11:19;3.90;;;3.60;;
10537;SDS011;5317;49.048;8.468;2023-08-30T06:13:46;4.13;;;3.70;;
10537;SDS011;5317;49.048;8.468;2023-08-30T06:16:12;4.47;;;3.50;;
10537;SDS011;5317;49.048;8.468;2023-08-30T06:18:40;4.40;;;4.07;;
10537;SDS011;5317;49.048;8.468;2023-08-30T06:21:07;4.10;;;3.73;;
10537;SDS011;5317;49.048;8.468;2023-08-30T06:23:36;4.17;;;3.77;;
10537;SDS011;5317;49.048;8.468;2023-08-30T06:26:03;3.70;;;3.40;;
10537;SDS011;5317;49.048;8.468;2023-08-30T06:28:30;4.10;;;3.70;;
10537;SDS011;5317;49.048;8.468;2023-08-30T06:30:57;4.57;;;3.63;;
10537;SDS011;5317;49.048;8.468;2023-08-30T06:33:24;4.30;;;3.90;;
10537;SDS011;5317;49.048;8.468;2023-08-30T06:35:52;4.20;;;3.70;;
10537;SDS011;5317;49.048;8.468;2023-08-30T06:38:20;6.47;;;3.80;;
10537;SDS011;5317;49.048;8.468;2023-08-30T06:40:47;5.13;;;3.63;;
10537;SDS011;5317;49.048;8.468;2023-08-30T06:43:14;4.57;;;3.50;;
10537;SDS011;5317;49.048;8.468;2023-08-30T06:45:41;4.37;;;3.90;;
10537;SDS011;5317;49.048;8.468;2023-08-30T06:48:08;4.10;;;3.70;;
10537;SDS011;5317;49.048;8.468;2023-08-30T06:50:35;4.83;;;3.30;;
10537;SDS011;5317;49.048;8.468;2023-08-30T06:53:03;4.23;;;3.47;;
10537;SDS011;5317;49.048;8.468;2023-08-30T06:55:30;4.77;;;3.47;;
10537;SDS011;5317;49.048;8.468;2023-08-30T06:57:58;3.07;;;2.80;;
10537;SDS011;5317;49.048;8.468;2023-08-30T07:00:25;3.43;;;3.13;;
10537;SDS011;5317;49.048;8.468;2023-08-30T07:02:52;5.70;;;3.30;;
10537;SDS011;5317;49.048;8.468;2023-08-30T07:05:19;3.63;;;3.07;;
10537;SDS011;5317;49.048;8.468;2023-08-30T07:07:46;4.47;;;2.97;;
10537;SDS011;5317;49.048;8.468;2023-08-30T07:10:14;3.43;;;3.13;;
10537;SDS011;5317;49.048;8.468;2023-08-30T07:12:41;3.53;;;3.20;;
10537;SDS011;5317;49.048;8.468;2023-08-30T07:15:08;3.40;;;3.10;;
10537;SDS011;5317;49.048;8.468;2023-08-30T07:17:35;3.23;;;2.93;;
10537;SDS011;5317;49.048;8.468;2023-08-30T07:20:02;5.07;;;3.40;;
10537;SDS011;5317;49.048;8.468;2023-08-30T07:22:33;3.00;;;2.70;;
10537;SDS011;5317;49.048;8.468;2023-08-30T07:25:01;3.97;;;2.73;;
10537;SDS011;5317;49.048;8.468;2023-08-30T07:27:30;3.20;;;2.90;;
10537;SDS011;5317;49.048;8.468;2023-08-30T07:29:57;3.27;;;2.87;;
10537;SDS011;5317;49.048;8.468;2023-08-30T07:32:23;3.50;;;3.00;;
10537;SDS011;5317;49.048;8.468;2023-08-30T07:34:50;3.17;;;2.93;;
10537;SDS011;5317;49.048;8.468;2023-08-30T07:37:17;2.90;;;2.70;;
10537;SDS011;5317;49.048;8.468;2023-08-30T07:39:45;3.33;;;2.97;;
10537;SDS011;5317;49.048;8.468;2023-08-30T07:42:12;4.10;;;3.00;;
10537;SDS011;5317;49.048;8.468;2023-08-30T07:44:41;3.17;;;2.87;;
10537;SDS011;5317;49.048;8.468;2023-08-30T07:47:08;5.00;;;3.00;;
10537;SDS011;5317;49.048;8.468;2023-08-30T07:49:35;3.27;;;2.97;;
10537;SDS011;5317;49.048;8.468;2023-08-30T07:52:02;3.33;;;3.03;;
10537;SDS011;5317;49.048;8.468;2023-08-30T07:54:29;3.53;;;3.23;;
10537;SDS011;5317;49.048;8.468;2023-08-30T07:56:57;3.57;;;2.90;;
10537;SDS011;5317;49.048;8.468;2023-08-30T07:59:23;3.90;;;2.73;;
10537;SDS011;5317;49.048;8.468;2023-08-30T08:01:52;3.30;;;2.87;;
10537;SDS011;5317;49.048;8.468;2023-08-30T08:04:18;4.53;;;3.23;;
10537;SDS011;5317;49.048;8.468;2023-08-30T08:06:45;3.23;;;2.73;;
10537;SDS011;5317;49.048;8.468;2023-08-30T08:09:12;3.10;;;2.80;;
10537;SDS011;5317;49.048;8.468;2023-08-30T08:11:40;3.50;;;3.13;;
10537;SDS011;5317;49.048;8.468;2023-08-30T08:14:08;3.67;;;2.80;;
10537;SDS011;5317;49.048;8.468;2023-08-30T08:16:35;4.87;;;2.97;;
10537;SDS011;5317;49.048;8.468;2023-08-30T08:19:03;3.17;;;2.67;;
10537;SDS011;5317;49.048;8.468;2023-08-30T08:21:31;3.23;;;2.93;;
10537;SDS011;5317;49.048;8.468;2023-08-30T08:23:58;4.00;;;2.93;;
10537;SDS011;5317;49.048;8.468;2023-08-30T08:26:24;4.37;;;3.40;;
10537;SDS011;5317;49.048;8.468;2023-08-30T08:28:51;3.70;;;3.00;;
10537;SDS011;5317;49.048;8.468;2023-08-30T08:31:19;4.47;;;3.30;;
10537;SDS011;5317;49.048;8.468;2023-08-30T08:33:46;3.80;;;3.50;;
10537;SDS011;5317;49.048;8.468;2023-08-30T08:36:17;3.73;;;3.43;;
10537;SDS011;5317;49.048;8.468;2023-08-30T08:38:44;3.80;;;3.50;;
10537;SDS011;5317;49.048;8.468;2023-08-30T08:41:12;3.00;;;2.80;;
10537;SDS011;5317;49.048;8.468;2023-08-30T08:43:41;3.40;;;3.00;;
10537;SDS011;5317;49.048;8.468;2023-08-30T08:46:09;3.20;;;2.90;;
10537;SDS011;5317;49.048;8.468;2023-08-30T08:48:39;3.40;;;3.10;;
10537;SDS011;5317;49.048;8.468;2023-08-30T08:51:07;3.63;;;2.90;;
10537;SDS011;5317;49.048;8.468;2023-08-30T08:53:35;2.93;;;2.73;;
10537;SDS011;5317;49.048;8.468;2023-08-30T08:56:03;3.23;;;2.90;;
10537;SDS011;5317;49.048;8.468;2023-08-30T08:58:33;2.93;;;2.73;;
10537;SDS011;5317;49.048;8.468;2023-08-30T09:01:03;3.10;;;2.77;;
10537;SDS011;5317;49.048;8.468;2023-08-30T09:03:32;4.20;;;2.70;;
10537;SDS011;5317;49.048;8.468;2023-08-30T09:06:00;3.33;;;2.80;;
10537;SDS011;5317;49.048;8.468;2023-08-30T09:08:29;3.30;;;2.60;;
10537;SDS011;5317;49.048;8.468;2023-08-30T09:10:57;3.10;;;2.80;;
10537;SDS011;5317;49.048;8.468;2023-08-30T09:13:24;2.90;;;2.60;;
10537;SDS011;5317;49.048;8.468;2023-08-30T09:15:51;2.80;;;2.60;;
10537;SDS011;5317;49.048;8.468;2023-08-30T09:18:18;3.00;;;2.70;;
10537;SDS011;5317;49.048;8.468;2023-08-30T09:20:45;2.80;;;2.60;;
10537;SDS011;5317;49.048;8.468;2023-08-30T09:23:16;3.10;;;2.90;;
10537;SDS011;5317;49.048;8.468;2023-08-30T09:25:43;3.07;;;2.53;;
10537;SDS011;5317;49.048;8.468;2023-08-30T09:28:13;3.30;;;2.57;;
10537;SDS011;5317;49.048;8.468;2023-08-30T09:30:40;2.93;;;2.53;;
10537;SDS011;5317;49.048;8.468;2023-08-30T09:33:07;2.83;;;2.57;;
10537;SDS011;5317;49.048;8.468;2023-08-30T09:35:39;2.60;;;2.40;;
10537;SDS011;5317;49.048;8.468;2023-08-30T09:38:15;2.43;;;2.17;;
10537;SDS011;5317;49.048;8.468;2023-08-30T09:40:43;2.60;;;2.40;;
10537;SDS011;5317;49.048;8.468;2023-08-30T09:43:10;3.13;;;2.50;;
10537;SDS011;5317;49.048;8.468;2023-08-30T09:45:39;3.00;;;2.70;;
10537;SDS011;5317;49.048;8.468;2023-08-30T09:48:06;2.50;;;2.30;;
10537;SDS011;5317;49.048;8.468;2023-08-30T09:50:34;2.53;;;2.33;;
10537;SDS011;5317;49.048;8.468;2023-08-30T09:53:04;3.60;;;2.80;;
10537;SDS011;5317;49.048;8.468;2023-08-30T09:55:34;2.90;;;2.57;;
10537;SDS011;5317;49.048;8.468;2023-08-30T09:58:01;3.03;;;2.63;;
10537;SDS011;5317;49.048;8.468;2023-08-30T10:00:29;2.67;;;2.47;;
10537;SDS011;5317;49.048;8.468;2023-08-30T10:02:59;2.87;;;2.47;;
10537;SDS011;5317;49.048;8.468;2023-08-30T10:05:26;2.73;;;2.50;;
10537;SDS011;5317;49.048;8.468;2023-08-30T10:07:53;2.70;;;2.50;;
10537;SDS011;5317;49.048;8.468;2023-08-30T10:10:21;2.60;;;2.40;;
10537;SDS011;5317;49.048;8.468;2023-08-30T10:12:49;2.17;;;2.07;;
10537;SDS011;5317;49.048;8.468;2023-08-30T10:15:18;3.07;;;2.87;;
10537;SDS011;5317;49.048;8.468;2023-08-30T10:17:47;2.70;;;2.50;;
10537;SDS011;5317;49.048;8.468;2023-08-30T10:20:19;2.53;;;2.33;;
10537;SDS011;5317;49.048;8.468;2023-08-30T10:22:47;3.53;;;2.70;;
10537;SDS011;5317;49.048;8.468;2023-08-30T10:25:17;6.33;;;2.80;;
10537;SDS011;5317;49.048;8.468;2023-08-30T10:27:49;2.57;;;2.37;;
10537;SDS011;5317;49.048;8.468;2023-08-30T10:30:17;2.80;;;2.40;;
10537;SDS011;5317;49.048;8.468;2023-08-30T10:32:46;2.60;;;2.40;;
10537;SDS011;5317;49.048;8.468;2023-08-30T10:35:13;2.73;;;2.47;;
10537;SDS011;5317;49.048;8.468;2023-08-30T10:37:53;2.30;;;2.10;;
10537;SDS011;5317;49.048;8.468;2023-08-30T10:40:21;2.70;;;2.50;;
10537;SDS011;5317;49.048;8.468;2023-08-30T10:42:57;2.80;;;2.60;;
10537;SDS011;5317;49.048;8.468;2023-08-30T10:45:25;3.17;;;2.93;;
10537;SDS011;5317;49.048;8.468;2023-08-30T10:47:54;3.10;;;2.80;;
10537;SDS011;5317;49.048;8.468;2023-08-30T10:50:27;2.80;;;2.40;;
10537;SDS011;5317;49.048;8.468;2023-08-30T10:52:56;3.93;;;2.10;;
10537;SDS011;5317;49.048;8.468;2023-08-30T10:55:23;2.67;;;2.47;;
10537;SDS011;5317;49.048;8.468;2023-08-30T10:57:57;2.60;;;2.40;;
10537;SDS011;5317;49.048;8.468;2023-08-30T11:00:27;3.10;;;2.80;;
10537;SDS011;5317;49.048;8.468;2023-08-30T11:02:54;2.50;;;2.30;;
10537;SDS011;5317;49.048;8.468;2023-08-30T11:05:22;4.60;;;2.60;;
10537;SDS011;5317;49.048;8.468;2023-08-30T11:07:50;2.87;;;2.30;;
10537;SDS011;5317;49.048;8.468;2023-08-30T11:10:19;2.93;;;2.50;;
10537;SDS011;5317;49.048;8.468;2023-08-30T11:12:46;2.60;;;2.40;;
10537;SDS011;5317;49.048;8.468;2023-08-30T11:15:15;2.83;;;2.40;;
10537;SDS011;5317;49.048;8.468;2023-08-30T11:17:42;3.80;;;2.70;;
10537;SDS011;5317;49.048;8.468;2023-08-30T11:20:10;2.40;;;2.20;;
10537;SDS011;5317;49.048;8.468;2023-08-30T11:22:39;3.37;;;2.20;;
10537;SDS011;5317;49.048;8.468;2023-08-30T11:25:08;2.67;;;2.47;;
10537;SDS011;5317;49.048;8.468;2023-08-30T11:27:37;2.50;;;2.30;;
10537;SDS011;5317;49.048;8.468;2023-08-30T11:30:04;2.90;;;2.30;;
10537;SDS011;5317;49.048;8.468;2023-08-30T11:32:33;2.47;;;2.27;;
10537;SDS011;5317;49.048;8.468;2023-08-30T11:35:00;3.27;;;2.50;;
10537;SDS011;5317;49.048;8.468;2023-08-30T11:37:27;2.90;;;2.20;;
10537;SDS011;5317;49.048;8.468;2023-08-30T11:39:55;3.40;;;2.07;;
10537;SDS011;5317;49.048;8.468;2023-08-30T11:42:22;2.20;;;2.00;;
10537;SDS011;5317;49.048;8.468;2023-08-30T11:44:50;2.30;;;2.10;;
10537;SDS011;5317;49.048;8.468;2023-08-30T11:47:18;2.00;;;1.90;;
10537;SDS011;5317;49.048;8.468;2023-08-30T11:49:48;2.50;;;2.27;;
10537;SDS011;5317;49.048;8.468;2023-08-30T11:52:16;3.93;;;2.20;;
10537;SDS011;5317;49.048;8.468;2023-08-30T11:54:44;2.67;;;2.13;;
10537;SDS011;5317;49.048;8.468;2023-08-30T11:57:13;2.50;;;2.20;;
10537;SDS011;5317;49.048;8.468;2023-08-30T11:59:40;2.40;;;2.20;;
10537;SDS011;5317;49.048;8.468;2023-08-30T12:02:08;2.33;;;2.10;;
10537;SDS011;5317;49.048;8.468;2023-08-30T12:04:39;3.37;;;1.90;;
10537;SDS011;5317;49.048;8.468;2023-08-30T12:07:06;3.03;;;2.00;;
10537;SDS011;5317;49.048;8.468;2023-08-30T12:09:33;2.23;;;1.87;;
10537;SDS011;5317;49.048;8.468;2023-08-30T12:12:06;2.03;;;1.90;;
10537;SDS011;5317;49.048;8.468;2023-08-30T12:14:35;2.20;;;2.10;;
10537;SDS011;5317;49.048;8.468;2023-08-30T12:17:02;3.10;;;2.07;;
10537;SDS011;5317;49.048;8.468;2023-08-30T12:19:31;2.37;;;2.10;;
10537;SDS011;5317;49.048;8.468;2023-08-30T12:22:03;2.20;;;2.00;;
10537;SDS011;5317;49.048;8.468;2023-08-30T12:24:39;2.20;;;2.00;;
10537;SDS011;5317;49.048;8.468;2023-08-30T12:27:07;3.27;;;2.30;;
10537;SDS011;5317;49.048;8.468;2023-08-30T12:29:34;4.20;;;2.30;;
10537;SDS011;5317;49.048;8.468;2023-08-30T12:32:01;2.27;;;1.90;;
10537;SDS011;5317;49.048;8.468;2023-08-30T12:34:28;2.13;;;1.93;;
10537;SDS011;5317;49.048;8.468;2023-08-30T12:36:56;2.73;;;2.00;;
10537;SDS011;5317;49.048;8.468;2023-08-30T12:39:23;2.10;;;1.90;;
10537;SDS011;5317;49.048;8.468;2023-08-30T12:41:50;2.17;;;1.97;;
10537;SDS011;5317;49.048;8.468;2023-08-30T12:44:17;4.07;;;2.07;;
10537;SDS011;5317;49.048;8.468;2023-08-30T12:46:44;2.40;;;2.03;;
10537;SDS011;5317;49.048;8.468;2023-08-30T12:49:11;2.63;;;2.10;;
10537;SDS011;5317;49.048;8.468;2023-08-30T12:51:38;3.27;;;2.17;;
10537;SDS011;5317;49.048;8.468;2023-08-30T12:54:06;2.30;;;2.10;;
10537;SDS011;5317;49.048;8.468;2023-08-30T12:56:33;2.50;;;2.30;;
10537;SDS011;5317;49.048;8.468;2023-08-30T12:59:00;2.40;;;2.20;;
10537;SDS011;5317;49.048;8.468;2023-08-30T13:01:27;2.23;;;2.03;;
10537;SDS011;5317;49.048;8.468;2023-08-30T13:03:54;2.00;;;1.90;;
10537;SDS011;5317;49.048;8.468;2023-08-30T13:06:20;3.80;;;1.97;;
10537;SDS011;5317;49.048;8.468;2023-08-30T13:08:47;3.00;;;2.10;;
10537;SDS011;5317;49.048;8.468;2023-08-30T13:11:15;2.27;;;1.87;;
10537;SDS011;5317;49.048;8.468;2023-08-30T13:13:42;2.60;;;1.97;;
10537;SDS011;5317;49.048;8.468;2023-08-30T13:16:09;2.07;;;1.90;;
10537;SDS011;5317;49.048;8.468;2023-08-30T13:18:36;2.93;;;1.80;;
10537;SDS011;5317;49.048;8.468;2023-08-30T13:21:03;2.10;;;1.90;;
10537;SDS011;5317;49.048;8.468;2023-08-30T13:23:30;3.10;;;2.00;;
10537;SDS011;5317;49.048;8.468;2023-08-30T13:25:57;2.73;;;1.83;;
10537;SDS011;5317;49.048;8.468;2023-08-30T13:28:25;1.90;;;1.70;;
10537;SDS011;5317;49.048;8.468;2023-08-30T13:30:52;1.80;;;1.70;;
10537;SDS011;5317;49.048;8.468;2023-08-30T13:33:19;2.10;;;1.90;;
10537;SDS011;5317;49.048;8.468;2023-08-30T13:35:48;1.90;;;1.80;;
10537;SDS011;5317;49.048;8.468;2023-08-30T13:38:16;2.27;;;2.00;;
10537;SDS011;5317;49.048;8.468;2023-08-30T13:40:43;2.07;;;1.87;;
10537;SDS011;5317;49.048;8.468;2023-08-30T13:43:10;1.60;;;1.50;;
10537;SDS011;5317;49.048;8.468;2023-08-30T13:45:38;2.03;;;1.80;;
10537;SDS011;5317;49.048;8.468;2023-08-30T13:48:05;2.27;;;2.07;;
10537;SDS011;5317;49.048;8.468;2023-08-30T13:50:32;2.20;;;1.93;;
10537;SDS011;5317;49.048;8.468;2023-08-30T13:52:59;2.37;;;2.00;;
10537;SDS011;5317;49.048;8.468;2023-08-30T13:55:27;2.83;;;1.83;;
10537;SDS011;5317;49.048;8.468;2023-08-30T13:57:53;2.10;;;1.80;;
10537;SDS011;5317;49.048;8.468;2023-08-30T14:00:20;2.53;;;1.70;;
10537;SDS011;5317;49.048;8.468;2023-08-30T14:02:49;2.10;;;1.90;;
10537;SDS011;5317;49.048;8.468;2023-08-30T14:05:16;2.17;;;1.97;;
10537;SDS011;5317;49.048;8.468;2023-08-30T14:07:44;3.33;;;1.90;;
10537;SDS011;5317;49.048;8.468;2023-08-30T14:10:10;2.73;;;2.00;;
10537;SDS011;5317;49.048;8.468;2023-08-30T14:12:43;1.80;;;1.70;;
10537;SDS011;5317;49.048;8.468;2023-08-30T14:15:10;2.57;;;2.00;;
10537;SDS011;5317;49.048;8.468;2023-08-30T14:17:37;2.13;;;1.93;;
10537;SDS011;5317;49.048;8.468;2023-08-30T14:20:06;1.67;;;1.57;;
10537;SDS011;5317;49.048;8.468;2023-08-30T14:22:34;2.07;;;1.87;;
10537;SDS011;5317;49.048;8.468;2023-08-30T14:25:01;2.10;;;1.80;;
10537;SDS011;5317;49.048;8.468;2023-08-30T14:27:29;2.00;;;1.70;;
10537;SDS011;5317;49.048;8.468;2023-08-30T14:29:57;2.07;;;1.93;;
10537;SDS011;5317;49.048;8.468;2023-08-30T14:32:25;2.30;;;2.10;;
10537;SDS011;5317;49.048;8.468;2023-08-30T14:34:52;1.93;;;1.80;;
10537;SDS011;5317;49.048;8.468;2023-08-30T14:37:20;2.13;;;1.93;;
10537;SDS011;5317;49.048;8.468;2023-08-30T14:39:47;2.13;;;1.70;;
10537;SDS011;5317;49.048;8.468;2023-08-30T14:42:14;2.53;;;2.00;;
10537;SDS011;5317;49.048;8.468;2023-08-30T14:44:40;2.47;;;2.10;;
10537;SDS011;5317;49.048;8.468;2023-08-30T14:47:07;2.10;;;2.00;;
10537;SDS011;5317;49.048;8.468;2023-08-30T14:49:34;3.30;;;2.00;;
10537;SDS011;5317;49.048;8.468;2023-08-30T14:52:01;2.03;;;1.83;;
10537;SDS011;5317;49.048;8.468;2023-08-30T14:54:30;2.10;;;1.90;;
10537;SDS011;5317;49.048;8.468;2023-08-30T14:56:57;1.93;;;1.83;;
10537;SDS011;5317;49.048;8.468;2023-08-30T14:59:23;3.47;;;1.87;;
10537;SDS011;5317;49.048;8.468;2023-08-30T15:01:50;2.23;;;1.80;;
10537;SDS011;5317;49.048;8.468;2023-08-30T15:04:17;1.63;;;1.53;;